Messwerte Madera

Temperatur

Temperatur
°C
1624258800 0.00 0.00 23
1624262400 1.00 1.00 23
1624266000 2.00 2.00 21
1624269600 3.00 3.00 20
1624273200 4.00 4.00 19
1624276800 5.00 5.00 19
1624280400 6.00 6.00 17
1624284000 7.00 7.00 18
1624287600 8.00 8.00 21
1624291200 9.00 9.00
1624294800 10.00 10.00 26
1624298400 11.00 11.00 28
1624302000 12.00 12.00 31
1624305600 13.00 13.00 33
1624309200 14.00 14.00 36
1624312800 15.00 15.00 37
1624316400 16.00 16.00 38
1624320000 17.00 17.00
1624323600 18.00 18.00 38
1624327200 19.00 19.00 36
1624330800 20.00 20.00 31
1624334400 21.00 21.00 27
1624338000 22.00 22.00 25
1624341600 23.00 23.00 24

Aktuellste Messwerte

Wettercharakter
Wetter: klar
Temperatur
23 °C
Feuchtigkeit
50 %
Wind
20 km/hWindrichtung: Nordwest
Luftdruck
1010 hPa
Messzeit: 22. Juni 2021, 0.00Datenquelle: METAR

Weitere Messstationen in der Nähe

Messstation Temperatur Entfernung
Fresno 26 °C 42 km
Merced 21 °C 48 km
Lemoore 21 °C 75 km
Hanford 26 °C 86 km
Modesto 17 °C 102 km
Salinas - 138 km
Porterville 22 °C 142 km

Wind

Windrichtung Böen Mittelwind
° km/h km/h
1624258800 0.00 23.00 - 0.00 310° 10
1624262400 1.00 0.00 - 1.00 300° 15
1624266000 2.00 1.00 - 2.00 310° 15
1624269600 3.00 2.00 - 3.00 320° 10
1624273200 4.00 3.00 - 4.00 340° 10
1624276800 5.00 4.00 - 5.00 300° 10
1624280400 6.00 5.00 - 6.00 270° 10
1624284000 7.00 6.00 - 7.00 290° 5
1624287600 8.00 7.00 - 8.00 300° 5
1624291200 9.00 8.00 - 9.00
1624294800 10.00 9.00 - 10.00 5
1624298400 11.00 10.00 - 11.00 5
1624302000 12.00 11.00 - 12.00 10
1624305600 13.00 12.00 - 13.00 230° 15
1624309200 14.00 13.00 - 14.00 240° 15
1624312800 15.00 14.00 - 15.00 190° 10
1624316400 16.00 15.00 - 16.00 220° 10
1624320000 17.00 16.00 - 17.00
1624323600 18.00 17.00 - 18.00 240° 10
1624327200 19.00 18.00 - 19.00 300° 15
1624330800 20.00 19.00 - 20.00
1624334400 21.00 20.00 - 21.00 300° 10
1624338000 22.00 21.00 - 22.00 280° 15
1624341600 23.00 22.00 - 23.00 290° 30 20

Ihre Wetterstation

Fehlt Ihre Wetterstation auf unserem Portal?

Schreiben Sie an network@meteonews.ch

Klima

Wann ist es am wärmsten? Wann regnet es am wenigsten? Unsere Klimadaten geben Auskunft.